createdAt,value
2022-08-31T00:03:57.772Z,98.22
2022-08-31T00:18:58.967Z,96.48
2022-08-31T00:34:01.816Z,94.24
2022-08-31T00:49:02.205Z,93.26
2022-08-31T01:04:02.377Z,91.37
2022-08-31T01:19:02.573Z,90.59
2022-08-31T01:34:02.731Z,88.65
2022-08-31T01:49:03.926Z,87.67
2022-08-31T02:04:04.220Z,86.55
2022-08-31T02:19:04.501Z,85.32
2022-08-31T02:34:05.216Z,83.22
2022-08-31T02:49:05.722Z,81.51
2022-08-31T03:04:06.022Z,81.10
2022-08-31T03:19:07.538Z,80.43
2022-08-31T03:34:07.723Z,80.98
2022-08-31T03:49:07.893Z,81.63
2022-08-31T04:04:08.173Z,82.08
2022-08-31T04:19:08.405Z,81.36
2022-08-31T04:34:08.583Z,78.70
2022-08-31T04:49:09.372Z,76.72
2022-08-31T05:04:09.913Z,77.09
2022-08-31T05:19:10.239Z,78.14
2022-08-31T05:34:10.463Z,74.29
2022-08-31T05:49:11.578Z,96.78
2022-08-31T06:04:11.493Z,99.99
2022-08-31T06:19:11.638Z,99.99
2022-08-31T06:34:11.705Z,99.99
2022-08-31T06:49:11.774Z,93.55
2022-08-31T07:04:12.413Z,92.56
2022-08-31T07:19:12.986Z,89.06
2022-08-31T07:34:13.665Z,85.96
2022-08-31T07:49:13.993Z,83.27
2022-08-31T08:04:15.137Z,78.92
2022-08-31T08:19:15.464Z,78.70
2022-08-31T08:34:17.348Z,74.76
2022-08-31T08:49:19.231Z,72.89
2022-08-31T09:04:19.398Z,71.83
2022-08-31T09:19:19.494Z,69.23
2022-08-31T09:34:21.368Z,67.23
2022-08-31T09:49:22.642Z,65.01
2022-08-31T10:04:24.514Z,60.24
2022-08-31T10:19:26.843Z,57.57
2022-08-31T10:34:28.726Z,59.94
2022-08-31T10:49:30.586Z,55.88
2022-08-31T11:04:32.584Z,58.16
2022-08-31T11:19:33.057Z,55.15
2022-08-31T11:34:33.350Z,52.72
2022-08-31T11:49:35.515Z,58.22
2022-08-31T12:04:35.603Z,57.73
2022-08-31T12:19:38.318Z,59.55
2022-08-31T12:34:39.697Z,55.55
2022-08-31T12:49:41.807Z,52.27
2022-08-31T13:04:43.540Z,51.25
2022-08-31T13:19:44.887Z,53.02
2022-08-31T13:34:46.212Z,50.80
2022-08-31T13:49:46.504Z,53.16
2022-08-31T14:04:48.375Z,48.30
2022-08-31T14:19:49.155Z,50.63
2022-08-31T14:34:51.009Z,48.33
2022-08-31T14:49:52.481Z,48.80
2022-08-31T15:04:52.851Z,51.03
2022-08-31T15:19:53.929Z,53.61
2022-08-31T15:34:55.328Z,57.50
2022-08-31T15:49:57.171Z,56.18
2022-08-31T16:04:58.025Z,57.15
2022-08-31T16:19:59.866Z,58.98
2022-08-31T16:35:00.699Z,61.99
2022-08-31T16:50:03.050Z,63.75
2022-08-31T17:05:36.807Z,69.02
2022-08-31T17:20:58.165Z,71.30
2022-08-31T17:35:58.243Z,73.81
2022-08-31T17:51:00.122Z,75.38
2022-08-31T18:06:01.205Z,77.00
2022-08-31T18:21:03.946Z,77.78
2022-08-31T18:36:04.033Z,80.38
2022-08-31T18:51:05.917Z,83.12
2022-08-31T19:06:21.678Z,86.27
2022-08-31T19:21:22.378Z,87.93
2022-08-31T19:36:27.592Z,90.64
2022-08-31T19:51:34.958Z,92.05
2022-08-31T20:06:37.362Z,94.02
2022-08-31T20:21:37.996Z,95.84
2022-08-31T20:36:39.893Z,96.66
2022-08-31T20:51:41.312Z,98.02
2022-08-31T21:06:43.063Z,99.99
2022-08-31T21:21:44.113Z,99.99
2022-08-31T21:36:45.485Z,99.99
2022-08-31T21:51:46.096Z,99.99
2022-08-31T22:06:46.722Z,99.99
2022-08-31T22:22:16.937Z,99.99
2022-08-31T22:37:47.366Z,99.99
2022-08-31T22:52:50.365Z,99.99
2022-08-31T23:07:51.402Z,99.99
2022-08-31T23:22:53.260Z,99.99
2022-08-31T23:38:19.659Z,99.99
2022-08-31T23:53:23.221Z,99.99
